createdAt,value
2019-04-27T00:00:47.640Z,4.70
2019-04-27T00:01:48.589Z,4.30
2019-04-27T00:02:47.633Z,4.40
2019-04-27T00:03:47.630Z,4.30
2019-04-27T00:04:48.743Z,6.90
2019-04-27T00:05:47.632Z,4.90
2019-04-27T00:06:47.604Z,6.40
2019-04-27T00:07:51.402Z,5.30
2019-04-27T00:08:47.595Z,4.00
2019-04-27T00:09:51.298Z,6.00
2019-04-27T00:10:47.586Z,5.30
2019-04-27T00:11:47.579Z,5.00
2019-04-27T00:12:47.570Z,6.60
2019-04-27T00:13:47.562Z,5.30
2019-04-27T00:14:48.290Z,6.70
2019-04-27T00:15:47.552Z,5.40
2019-04-27T00:16:50.869Z,4.70
2019-04-27T00:17:49.589Z,4.80
2019-04-27T00:18:49.709Z,5.90
2019-04-27T00:19:47.521Z,4.80
2019-04-27T00:20:47.514Z,5.90
2019-04-27T00:21:47.506Z,4.20
2019-04-27T00:22:47.504Z,6.70
2019-04-27T00:23:47.499Z,4.90
2019-04-27T00:24:47.494Z,6.30
2019-04-27T00:25:47.487Z,7.70
2019-04-27T00:26:47.476Z,4.60
2019-04-27T00:27:47.470Z,5.30
2019-04-27T00:28:47.466Z,6.20
2019-04-27T00:29:47.459Z,5.00
2019-04-27T00:30:47.450Z,5.70
2019-04-27T00:31:47.445Z,4.90
2019-04-27T00:32:47.435Z,5.20
2019-04-27T00:33:47.427Z,5.20
2019-04-27T00:34:47.425Z,4.40
2019-04-27T00:35:47.421Z,7.50
2019-04-27T00:36:47.415Z,6.20
2019-04-27T00:37:47.405Z,4.90
2019-04-27T00:38:47.393Z,5.60
2019-04-27T00:39:47.386Z,6.20
2019-04-27T00:40:47.382Z,6.70
2019-04-27T00:41:47.375Z,4.60
2019-04-27T00:42:47.372Z,4.70
2019-04-27T00:43:47.365Z,4.00
2019-04-27T00:44:47.354Z,5.90
2019-04-27T00:45:47.350Z,5.40
2019-04-27T00:46:47.346Z,4.70
2019-04-27T00:47:56.281Z,3.90
2019-04-27T00:48:47.328Z,6.10
2019-04-27T00:49:47.323Z,5.20
2019-04-27T00:50:47.309Z,5.00
2019-04-27T00:51:47.304Z,4.80
2019-04-27T00:52:47.299Z,4.00
2019-04-27T00:53:47.291Z,4.80
2019-04-27T00:54:47.289Z,3.50
2019-04-27T00:55:47.281Z,5.00
2019-04-27T00:56:47.271Z,4.80
2019-04-27T00:57:47.264Z,6.10
2019-04-27T00:58:47.253Z,4.10
2019-04-27T00:59:47.247Z,5.10
2019-04-27T01:00:47.245Z,4.80
2019-04-27T01:01:47.235Z,3.70
2019-04-27T01:02:47.226Z,5.90
2019-04-27T01:03:47.230Z,4.40
2019-04-27T01:04:47.212Z,5.20
2019-04-27T01:05:47.205Z,4.80
2019-04-27T01:06:47.201Z,4.00
2019-04-27T01:07:47.194Z,4.00
2019-04-27T01:08:47.186Z,4.60
2019-04-27T01:09:47.181Z,6.80
2019-04-27T01:10:47.169Z,6.00
2019-04-27T01:11:47.169Z,4.30
2019-04-27T01:12:47.151Z,5.10
2019-04-27T01:13:47.145Z,3.90
2019-04-27T01:14:47.143Z,3.60
2019-04-27T01:15:47.135Z,4.70
2019-04-27T01:16:47.123Z,5.60
2019-04-27T01:17:48.947Z,5.00
2019-04-27T01:18:48.824Z,4.60
2019-04-27T01:19:47.106Z,4.80
2019-04-27T01:20:48.860Z,4.20
2019-04-27T01:21:47.094Z,6.40
2019-04-27T01:22:47.080Z,6.00
2019-04-27T01:23:48.712Z,5.50
2019-04-27T01:24:47.067Z,5.30
2019-04-27T01:25:47.061Z,4.00
2019-04-27T01:26:47.055Z,4.50
2019-04-27T01:27:47.049Z,4.70
2019-04-27T01:28:47.039Z,4.90
2019-04-27T01:29:47.031Z,4.00
2019-04-27T01:30:47.019Z,3.80
2019-04-27T01:31:48.568Z,5.20
2019-04-27T01:32:47.009Z,6.00
2019-04-27T01:33:48.793Z,3.70
2019-04-27T01:34:46.992Z,4.50
2019-04-27T01:35:46.983Z,4.70
2019-04-27T01:36:46.977Z,4.10
2019-04-27T01:37:48.674Z,4.70
2019-04-27T01:38:46.970Z,8.30
2019-04-27T01:39:48.528Z,3.80
2019-04-27T01:40:46.952Z,4.40
2019-04-27T01:41:46.947Z,4.60
2019-04-27T01:42:48.384Z,4.90
2019-04-27T01:43:46.927Z,5.10
2019-04-27T01:44:46.916Z,5.00
2019-04-27T01:45:48.731Z,4.90
2019-04-27T01:46:48.565Z,4.80
2019-04-27T01:47:46.898Z,4.10
2019-04-27T01:48:46.886Z,4.80
2019-04-27T01:49:46.879Z,4.50
2019-04-27T01:50:46.877Z,5.60
2019-04-27T01:51:46.867Z,3.50
2019-04-27T01:52:48.555Z,6.30
2019-04-27T01:53:46.857Z,5.10
2019-04-27T01:54:46.843Z,4.70
2019-04-27T01:55:49.007Z,4.40
2019-04-27T01:56:46.831Z,4.80
2019-04-27T01:57:48.648Z,6.10
2019-04-27T01:58:46.817Z,4.70
2019-04-27T01:59:46.819Z,3.40
2019-04-27T02:00:46.800Z,4.80
2019-04-27T02:01:46.791Z,5.20
2019-04-27T02:02:46.781Z,3.70
2019-04-27T02:03:46.772Z,6.80
2019-04-27T02:04:46.771Z,5.20
2019-04-27T02:05:46.762Z,3.50
2019-04-27T02:06:48.620Z,4.00
2019-04-27T02:07:46.743Z,4.30
2019-04-27T02:08:46.735Z,5.60
2019-04-27T02:09:48.562Z,5.00
2019-04-27T02:10:46.726Z,3.60
2019-04-27T02:11:46.721Z,3.80
2019-04-27T02:12:48.618Z,4.20
2019-04-27T02:13:46.702Z,3.40
2019-04-27T02:14:46.697Z,4.50
2019-04-27T02:15:48.562Z,3.80
2019-04-27T02:16:46.672Z,3.40
2019-04-27T02:17:46.664Z,3.60
2019-04-27T02:18:46.662Z,4.10
2019-04-27T02:19:46.654Z,3.80
2019-04-27T02:20:46.642Z,3.40
2019-04-27T02:21:46.636Z,5.40
2019-04-27T02:22:46.632Z,4.20
2019-04-27T02:23:46.626Z,3.40
2019-04-27T02:24:46.620Z,4.80
2019-04-27T02:25:46.611Z,4.20
2019-04-27T02:26:46.601Z,4.90
2019-04-27T02:27:46.592Z,3.30
2019-04-27T02:28:46.584Z,3.00
2019-04-27T02:29:46.583Z,4.30
2019-04-27T02:30:46.573Z,4.70
2019-04-27T02:31:46.567Z,3.10
2019-04-27T02:32:46.556Z,4.30
2019-04-27T02:33:46.557Z,4.10
2019-04-27T02:34:46.544Z,3.70
2019-04-27T02:35:46.529Z,4.40
2019-04-27T02:36:46.525Z,3.20
2019-04-27T02:37:46.516Z,3.10
2019-04-27T02:38:46.505Z,2.90
2019-04-27T02:39:46.499Z,4.20
2019-04-27T02:40:46.503Z,3.80
2019-04-27T02:41:46.485Z,3.90
2019-04-27T02:42:46.483Z,4.50
2019-04-27T02:43:46.473Z,3.40
2019-04-27T02:44:46.467Z,4.30
2019-04-27T02:45:46.458Z,4.90
2019-04-27T02:46:46.448Z,3.60
2019-04-27T02:47:46.444Z,3.20
2019-04-27T02:48:58.948Z,4.70
2019-04-27T02:49:46.424Z,3.40
2019-04-27T02:50:46.418Z,4.00
2019-04-27T02:51:46.410Z,4.40
2019-04-27T02:52:46.401Z,2.70
2019-04-27T02:53:46.389Z,4.50
2019-04-27T02:54:46.388Z,3.80
2019-04-27T02:55:46.379Z,4.30
2019-04-27T02:56:46.381Z,3.50
2019-04-27T02:57:46.366Z,2.60
2019-04-27T02:58:46.355Z,3.50
2019-04-27T02:59:46.348Z,4.20
2019-04-27T03:00:46.336Z,3.80
2019-04-27T03:01:46.963Z,5.80
2019-04-27T03:02:46.326Z,3.50
2019-04-27T03:03:46.318Z,5.50
2019-04-27T03:04:46.310Z,3.40
2019-04-27T03:05:46.305Z,4.30
2019-04-27T03:06:46.294Z,4.70
2019-04-27T03:07:46.286Z,4.10
2019-04-27T03:08:50.642Z,6.20
2019-04-27T03:09:46.276Z,5.20
2019-04-27T03:10:46.264Z,5.60
2019-04-27T03:11:46.256Z,4.40
2019-04-27T03:12:46.244Z,3.40
2019-04-27T03:13:46.238Z,4.30
2019-04-27T03:14:46.234Z,4.40
2019-04-27T03:15:46.227Z,5.70
2019-04-27T03:16:46.217Z,3.80
2019-04-27T03:17:46.211Z,3.50
2019-04-27T03:18:46.199Z,3.50
2019-04-27T03:19:46.193Z,7.40
2019-04-27T03:20:46.186Z,4.70
2019-04-27T03:21:46.177Z,3.40
2019-04-27T03:22:46.174Z,4.00
2019-04-27T03:23:46.166Z,2.90
2019-04-27T03:24:46.157Z,3.00
2019-04-27T03:25:46.148Z,4.00
2019-04-27T03:26:46.144Z,3.40
2019-04-27T03:27:46.138Z,5.40
2019-04-27T03:28:46.127Z,3.10
2019-04-27T03:29:46.118Z,5.40
2019-04-27T03:30:46.109Z,6.30
2019-04-27T03:31:47.654Z,3.30
2019-04-27T03:32:46.090Z,3.20
2019-04-27T03:33:46.086Z,3.70
2019-04-27T03:34:46.080Z,3.90
2019-04-27T03:35:46.074Z,3.30
2019-04-27T03:36:46.071Z,4.40
2019-04-27T03:37:46.059Z,3.50
2019-04-27T03:38:46.046Z,5.20
2019-04-27T03:39:46.053Z,3.40
2019-04-27T03:40:46.035Z,2.60
2019-04-27T03:41:46.027Z,3.40
2019-04-27T03:42:46.015Z,4.40
2019-04-27T03:43:46.010Z,4.00
2019-04-27T03:44:45.998Z,3.80
2019-04-27T03:45:45.991Z,3.30
2019-04-27T03:46:45.986Z,4.90
2019-04-27T03:47:45.981Z,4.10
2019-04-27T03:48:45.972Z,3.40
2019-04-27T03:49:45.963Z,6.10
2019-04-27T03:50:45.952Z,3.10
2019-04-27T03:51:45.947Z,5.90
2019-04-27T03:52:45.938Z,3.80
2019-04-27T03:53:45.941Z,3.80
2019-04-27T03:54:45.927Z,4.70
2019-04-27T03:55:45.920Z,4.80
2019-04-27T03:56:45.907Z,3.10
2019-04-27T03:57:45.898Z,6.80
2019-04-27T03:58:45.899Z,3.20
2019-04-27T03:59:45.888Z,4.20
2019-04-27T04:00:45.876Z,5.20
2019-04-27T04:01:45.869Z,3.00
2019-04-27T04:02:45.858Z,3.70
2019-04-27T04:03:45.851Z,3.70
2019-04-27T04:04:45.846Z,3.70
2019-04-27T04:05:45.840Z,5.50
2019-04-27T04:06:45.835Z,3.90
2019-04-27T04:07:45.830Z,4.80
2019-04-27T04:08:45.819Z,4.10
2019-04-27T04:09:45.815Z,3.80
2019-04-27T04:10:45.798Z,3.70
2019-04-27T04:11:45.790Z,4.10
2019-04-27T04:12:45.791Z,3.90
2019-04-27T04:13:45.779Z,3.60
2019-04-27T04:14:45.778Z,4.40
2019-04-27T04:15:45.759Z,3.90
2019-04-27T04:16:45.759Z,5.10
2019-04-27T04:17:45.745Z,6.30
2019-04-27T04:18:45.743Z,4.30
2019-04-27T04:19:54.481Z,4.50
2019-04-27T04:20:45.726Z,4.20
2019-04-27T04:21:45.720Z,4.20
2019-04-27T04:22:45.708Z,3.60
2019-04-27T04:23:45.700Z,6.20
2019-04-27T04:24:45.689Z,3.90
2019-04-27T04:25:45.691Z,4.40
2019-04-27T04:26:45.679Z,3.00
2019-04-27T04:27:45.673Z,3.50
2019-04-27T04:28:45.658Z,3.50
2019-04-27T04:29:45.651Z,3.10
2019-04-27T04:30:45.649Z,3.60
2019-04-27T04:31:45.646Z,3.20
2019-04-27T04:32:45.636Z,3.30
2019-04-27T04:33:45.626Z,5.00
2019-04-27T04:34:45.618Z,3.20
2019-04-27T04:35:45.610Z,3.30
2019-04-27T04:36:45.615Z,3.70
2019-04-27T04:37:45.595Z,4.00
2019-04-27T04:38:45.589Z,4.90
2019-04-27T04:39:45.583Z,4.40
2019-04-27T04:40:45.573Z,3.70
2019-04-27T04:41:45.567Z,3.70
2019-04-27T04:42:45.554Z,4.10
2019-04-27T04:43:45.546Z,5.30
2019-04-27T04:44:45.546Z,3.60
2019-04-27T04:45:45.534Z,4.20
2019-04-27T04:46:45.525Z,3.30
2019-04-27T04:47:45.565Z,5.20
2019-04-27T04:48:45.516Z,5.60
2019-04-27T04:49:45.507Z,2.30
2019-04-27T04:50:45.507Z,5.00
2019-04-27T04:51:45.496Z,3.90
2019-04-27T04:52:45.486Z,3.70
2019-04-27T04:53:45.486Z,5.20
2019-04-27T04:54:45.470Z,4.70
2019-04-27T04:55:45.463Z,2.80
2019-04-27T04:56:45.452Z,4.80
2019-04-27T04:57:45.446Z,2.90
2019-04-27T04:58:45.445Z,4.80
2019-04-27T04:59:45.439Z,5.50
2019-04-27T05:00:45.426Z,3.60
2019-04-27T05:01:45.420Z,3.90
2019-04-27T05:02:45.420Z,6.30
2019-04-27T05:03:45.418Z,4.10
2019-04-27T05:04:45.409Z,4.50
2019-04-27T05:05:45.400Z,5.00
2019-04-27T05:06:45.393Z,3.70
2019-04-27T05:07:45.385Z,4.30
2019-04-27T05:08:45.376Z,3.80
2019-04-27T05:09:45.371Z,5.80
2019-04-27T05:10:45.367Z,4.60
2019-04-27T05:11:45.363Z,4.20
2019-04-27T05:12:45.358Z,5.90
2019-04-27T05:13:45.349Z,4.30
2019-04-27T05:14:45.342Z,4.10
2019-04-27T05:15:45.334Z,6.00
2019-04-27T05:16:45.334Z,2.60
2019-04-27T05:17:45.324Z,4.20
2019-04-27T05:18:45.318Z,5.20
2019-04-27T05:19:45.309Z,4.50
2019-04-27T05:20:45.298Z,5.60
2019-04-27T05:21:45.292Z,4.40
2019-04-27T05:22:45.288Z,3.00
2019-04-27T05:23:45.295Z,3.80
2019-04-27T05:24:45.277Z,2.80
2019-04-27T05:25:45.268Z,4.80
2019-04-27T05:26:45.258Z,3.80
2019-04-27T05:27:45.251Z,4.50
2019-04-27T05:28:45.248Z,4.90
2019-04-27T05:29:45.242Z,5.10
2019-04-27T05:30:45.238Z,3.30
2019-04-27T05:31:45.231Z,4.40
2019-04-27T05:32:45.218Z,5.40
2019-04-27T05:33:45.214Z,3.50
2019-04-27T05:34:45.210Z,3.60
2019-04-27T05:35:45.205Z,5.80
2019-04-27T05:36:48.970Z,6.90
2019-04-27T05:37:45.189Z,4.00
2019-04-27T05:38:46.746Z,3.70
2019-04-27T05:39:45.170Z,3.40
2019-04-27T05:40:45.164Z,5.20
2019-04-27T05:41:45.157Z,4.40
2019-04-27T05:42:48.816Z,4.30
2019-04-27T05:43:45.147Z,3.90
2019-04-27T05:44:46.586Z,4.00
2019-04-27T05:45:45.135Z,3.50
2019-04-27T05:46:45.128Z,6.40
2019-04-27T05:47:50.188Z,2.80
2019-04-27T05:48:45.117Z,3.40
2019-04-27T05:49:45.114Z,4.10
2019-04-27T05:50:45.999Z,7.80
2019-04-27T05:51:47.898Z,3.30
2019-04-27T05:52:45.083Z,3.40
2019-04-27T05:53:45.077Z,4.30
2019-04-27T05:54:45.074Z,5.40
2019-04-27T05:55:45.067Z,4.70
2019-04-27T05:56:45.059Z,3.50
2019-04-27T05:57:45.053Z,4.70
2019-04-27T05:58:45.043Z,4.30
2019-04-27T05:59:45.037Z,3.90
2019-04-27T06:00:45.035Z,5.30
2019-04-27T06:01:45.034Z,3.80
2019-04-27T06:02:45.021Z,6.40
2019-04-27T06:03:45.015Z,5.30
2019-04-27T06:04:45.004Z,4.30
2019-04-27T06:05:44.998Z,3.60
2019-04-27T06:06:44.994Z,4.50
2019-04-27T06:07:44.988Z,3.60
2019-04-27T06:08:44.977Z,5.30
2019-04-27T06:09:44.970Z,4.50
2019-04-27T06:10:44.961Z,5.60
2019-04-27T06:11:44.953Z,5.70
2019-04-27T06:12:44.947Z,3.50
2019-04-27T06:13:44.941Z,5.90
2019-04-27T06:14:44.939Z,8.50
2019-04-27T06:15:44.932Z,3.80
2019-04-27T06:16:44.921Z,5.90
2019-04-27T06:17:44.915Z,5.20
2019-04-27T06:18:44.902Z,5.50
2019-04-27T06:19:44.899Z,4.80
2019-04-27T06:20:54.786Z,4.30
2019-04-27T06:21:44.886Z,5.40
2019-04-27T06:22:44.875Z,6.90
2019-04-27T06:23:44.868Z,5.10
2019-04-27T06:24:44.863Z,4.60
2019-04-27T06:25:44.856Z,4.10
2019-04-27T06:26:44.853Z,6.10
2019-04-27T06:27:44.845Z,5.60
2019-04-27T06:28:44.837Z,5.10
2019-04-27T06:29:44.830Z,4.70
2019-04-27T06:30:44.821Z,4.60
2019-04-27T06:31:44.812Z,5.30
2019-04-27T06:32:44.802Z,7.10
2019-04-27T06:33:44.807Z,5.90
2019-04-27T06:34:44.792Z,5.50
2019-04-27T06:35:44.784Z,3.90
2019-04-27T06:36:44.774Z,5.40
2019-04-27T06:37:44.765Z,5.50
2019-04-27T06:38:44.764Z,5.80
2019-04-27T06:39:44.755Z,7.40
2019-04-27T06:40:44.756Z,7.40
2019-04-27T06:41:44.745Z,5.50
2019-04-27T06:42:44.732Z,7.10
2019-04-27T06:43:44.727Z,5.70
2019-04-27T06:44:44.718Z,5.70
2019-04-27T06:45:44.711Z,8.70
2019-04-27T06:46:44.709Z,7.80
2019-04-27T06:47:44.700Z,5.60
2019-04-27T06:48:44.691Z,5.60
2019-04-27T06:49:44.685Z,7.30
2019-04-27T06:50:44.677Z,6.90
2019-04-27T06:51:44.665Z,9.60
2019-04-27T06:52:44.660Z,7.30
2019-04-27T06:53:44.657Z,9.30
2019-04-27T06:54:44.643Z,5.60
2019-04-27T06:55:44.636Z,5.80
2019-04-27T06:56:44.630Z,6.90
2019-04-27T06:57:44.625Z,6.80
2019-04-27T06:58:44.621Z,6.20
2019-04-27T06:59:44.615Z,5.80
2019-04-27T07:00:44.605Z,6.30
2019-04-27T07:01:44.600Z,10.00
2019-04-27T07:02:44.588Z,6.70
2019-04-27T07:03:44.582Z,8.10
2019-04-27T07:04:44.571Z,9.30
2019-04-27T07:05:44.563Z,8.50
2019-04-27T07:06:53.409Z,9.80
2019-04-27T07:07:44.554Z,6.00
2019-04-27T07:08:44.540Z,7.60
2019-04-27T07:09:44.534Z,8.10
2019-04-27T07:10:44.531Z,7.30
2019-04-27T07:11:44.526Z,6.50
2019-04-27T07:12:44.519Z,6.80
2019-04-27T07:13:44.512Z,6.90
2019-04-27T07:14:52.915Z,6.40
2019-04-27T07:15:44.496Z,7.70
2019-04-27T07:16:44.489Z,5.90
2019-04-27T07:17:44.477Z,7.50
2019-04-27T07:18:44.475Z,7.30
2019-04-27T07:19:44.468Z,7.60
2019-04-27T07:20:44.463Z,7.30
2019-04-27T07:21:44.454Z,6.20
2019-04-27T07:22:44.445Z,6.90
2019-04-27T07:23:44.439Z,6.50
2019-04-27T07:24:44.434Z,7.70
2019-04-27T07:25:44.428Z,6.70
2019-04-27T07:26:44.415Z,7.20
2019-04-27T07:27:44.435Z,9.00
2019-04-27T07:28:44.401Z,8.50
2019-04-27T07:29:44.849Z,7.40
2019-04-27T07:30:44.390Z,10.10
2019-04-27T07:31:44.383Z,7.30
2019-04-27T07:32:44.375Z,8.00
2019-04-27T07:33:44.366Z,10.10
2019-04-27T07:34:44.361Z,7.40
2019-04-27T07:35:44.349Z,6.10
2019-04-27T07:36:44.344Z,9.00
2019-04-27T07:37:44.336Z,7.20
2019-04-27T07:38:44.334Z,9.90
2019-04-27T07:39:44.329Z,8.40
2019-04-27T07:40:44.315Z,9.80
2019-04-27T07:41:44.307Z,10.10
2019-04-27T07:42:46.016Z,8.40
2019-04-27T07:43:44.297Z,9.40
2019-04-27T07:44:44.288Z,8.80
2019-04-27T07:45:44.283Z,9.00
2019-04-27T07:46:44.270Z,7.20
2019-04-27T07:47:44.264Z,8.80
2019-04-27T07:48:44.255Z,6.80
2019-04-27T07:49:44.248Z,8.60
2019-04-27T07:50:44.246Z,12.90
2019-04-27T07:51:44.245Z,6.40
2019-04-27T07:52:44.235Z,9.80
2019-04-27T07:53:44.227Z,7.40
2019-04-27T07:54:44.216Z,8.40
2019-04-27T07:55:44.211Z,8.90
2019-04-27T07:56:44.205Z,10.70
2019-04-27T07:57:44.197Z,8.50
2019-04-27T07:58:44.187Z,7.70
2019-04-27T07:59:44.181Z,9.30
2019-04-27T08:00:44.170Z,9.00
2019-04-27T08:01:44.164Z,7.90
2019-04-27T08:02:44.166Z,7.70
2019-04-27T08:03:44.155Z,8.20
2019-04-27T08:04:44.147Z,8.70
2019-04-27T08:05:44.141Z,8.20
2019-04-27T08:06:44.132Z,7.90
2019-04-27T08:07:44.123Z,9.50
2019-04-27T08:08:44.118Z,8.00
2019-04-27T08:09:44.110Z,8.90
2019-04-27T08:10:44.108Z,8.90
2019-04-27T08:11:44.101Z,9.20
2019-04-27T08:12:44.089Z,11.90
2019-04-27T08:13:44.083Z,8.90
2019-04-27T08:14:44.079Z,8.20
2019-04-27T08:15:44.073Z,9.90
2019-04-27T08:16:44.064Z,8.00
2019-04-27T08:17:44.056Z,7.50
2019-04-27T08:18:44.047Z,6.90
2019-04-27T08:19:44.039Z,8.80
2019-04-27T08:20:44.034Z,9.00
2019-04-27T08:21:46.567Z,9.50
2019-04-27T08:22:44.026Z,11.10
2019-04-27T08:23:44.018Z,9.30
2019-04-27T08:24:44.007Z,9.20
2019-04-27T08:25:44.003Z,10.30
2019-04-27T08:26:43.990Z,10.30
2019-04-27T08:27:43.986Z,10.10
2019-04-27T08:28:43.981Z,11.00
2019-04-27T08:29:43.974Z,13.60
2019-04-27T08:30:43.965Z,12.30
2019-04-27T08:31:43.955Z,14.00
2019-04-27T08:32:43.951Z,12.30
2019-04-27T08:33:43.944Z,12.40
2019-04-27T08:34:43.941Z,12.70
2019-04-27T08:35:43.934Z,14.80
2019-04-27T08:36:43.927Z,13.00
2019-04-27T08:37:43.922Z,13.40
2019-04-27T08:38:43.909Z,16.90
2019-04-27T08:39:43.903Z,11.30
2019-04-27T08:40:43.892Z,14.50
2019-04-27T08:41:43.884Z,11.30
2019-04-27T08:42:43.883Z,13.90
2019-04-27T08:43:43.876Z,16.20
2019-04-27T08:44:43.862Z,14.20
2019-04-27T08:45:43.857Z,11.40
2019-04-27T08:46:43.853Z,12.10
2019-04-27T08:47:43.847Z,16.80
2019-04-27T08:48:43.842Z,14.80
2019-04-27T08:49:43.833Z,13.50
2019-04-27T08:50:43.824Z,10.20
2019-04-27T08:51:56.055Z,12.50
2019-04-27T08:52:43.808Z,14.60
2019-04-27T08:53:43.802Z,11.10
2019-04-27T08:54:43.799Z,10.10
2019-04-27T08:55:43.793Z,11.30
2019-04-27T08:56:43.787Z,13.60
2019-04-27T08:57:43.777Z,10.60
2019-04-27T08:58:43.766Z,11.30
2019-04-27T08:59:43.760Z,9.70
2019-04-27T09:00:43.757Z,10.30
2019-04-27T09:01:43.750Z,10.20
2019-04-27T09:02:47.106Z,9.00
2019-04-27T09:03:43.733Z,10.20
2019-04-27T09:04:43.729Z,10.60
2019-04-27T09:05:43.721Z,11.30
2019-04-27T09:06:43.721Z,11.20
2019-04-27T09:07:43.716Z,10.90
2019-04-27T09:08:43.707Z,12.80
2019-04-27T09:09:43.702Z,12.40
2019-04-27T09:10:43.688Z,12.50
2019-04-27T09:11:43.683Z,18.40
2019-04-27T09:12:43.673Z,12.20
2019-04-27T09:13:43.666Z,11.30
2019-04-27T09:14:43.664Z,11.90
2019-04-27T09:15:43.658Z,11.30
2019-04-27T09:16:43.654Z,11.20
2019-04-27T09:17:43.640Z,11.60
2019-04-27T09:18:43.639Z,10.70
2019-04-27T09:19:43.634Z,11.00
2019-04-27T09:20:43.626Z,11.60
2019-04-27T09:21:43.621Z,12.10
2019-04-27T09:22:43.609Z,11.60
2019-04-27T09:23:43.605Z,11.50
2019-04-27T09:24:43.595Z,12.10
2019-04-27T09:25:43.588Z,12.60
2019-04-27T09:26:43.584Z,11.70
2019-04-27T09:27:43.578Z,11.90
2019-04-27T09:28:43.571Z,11.30
2019-04-27T09:29:43.569Z,11.90
2019-04-27T09:30:43.555Z,14.20
2019-04-27T09:31:43.548Z,15.90
2019-04-27T09:32:43.544Z,13.40
2019-04-27T09:33:43.538Z,10.80
2019-04-27T09:34:43.530Z,13.20
2019-04-27T09:35:43.522Z,10.10
2019-04-27T09:36:43.511Z,11.90
2019-04-27T09:37:43.503Z,10.80
2019-04-27T09:38:43.501Z,12.60
2019-04-27T09:39:43.494Z,13.40
2019-04-27T09:40:43.487Z,14.80
2019-04-27T09:41:43.480Z,7.20
2019-04-27T09:42:43.470Z,6.80
2019-04-27T09:43:43.465Z,7.90
2019-04-27T09:44:43.459Z,9.50
2019-04-27T09:45:43.454Z,5.80
2019-04-27T09:46:43.450Z,5.60
2019-04-27T09:47:43.443Z,5.30
2019-04-27T09:48:43.430Z,7.10
2019-04-27T09:49:43.430Z,4.60
2019-04-27T09:50:43.420Z,4.60
2019-04-27T09:51:43.414Z,6.70
2019-04-27T09:52:43.406Z,7.40
2019-04-27T09:53:43.398Z,8.80
2019-04-27T09:54:43.388Z,6.10
2019-04-27T09:55:43.379Z,3.50
2019-04-27T09:56:43.374Z,6.10
2019-04-27T09:57:43.366Z,3.90
2019-04-27T09:58:43.367Z,7.40
2019-04-27T09:59:43.360Z,4.40
2019-04-27T10:00:43.352Z,7.80
2019-04-27T10:01:43.346Z,6.50
2019-04-27T10:02:43.336Z,4.70
2019-04-27T10:03:43.327Z,4.00
2019-04-27T10:04:43.328Z,6.80
2019-04-27T10:05:43.318Z,5.70
2019-04-27T10:06:43.308Z,10.50
2019-04-27T10:07:43.303Z,6.80
2019-04-27T10:08:43.292Z,6.50
2019-04-27T10:09:43.285Z,9.30
2019-04-27T10:10:43.282Z,6.60
2019-04-27T10:11:43.277Z,7.90
2019-04-27T10:12:43.271Z,5.80
2019-04-27T10:13:43.263Z,5.90
2019-04-27T10:14:43.252Z,8.10
2019-04-27T10:15:43.248Z,7.10
2019-04-27T10:16:43.243Z,8.10
2019-04-27T10:17:43.236Z,7.80
2019-04-27T10:18:43.234Z,6.00
2019-04-27T10:19:43.227Z,6.00
2019-04-27T10:20:56.285Z,8.80
2019-04-27T10:21:43.216Z,7.20
2019-04-27T10:22:43.808Z,6.30
2019-04-27T10:23:43.203Z,11.30
2019-04-27T10:24:43.195Z,8.40
2019-04-27T10:25:43.189Z,5.10
2019-04-27T10:26:43.848Z,5.40
2019-04-27T10:27:43.171Z,5.70
2019-04-27T10:28:43.163Z,7.00
2019-04-27T10:29:43.158Z,7.80
2019-04-27T10:30:43.160Z,4.40
2019-04-27T10:31:43.150Z,3.70
2019-04-27T10:32:43.149Z,7.40
2019-04-27T10:33:43.140Z,3.80
2019-04-27T10:34:43.129Z,5.30
2019-04-27T10:35:43.125Z,8.50
2019-04-27T10:36:43.138Z,6.40
2019-04-27T10:37:43.116Z,4.30
2019-04-27T10:38:43.108Z,5.90
2019-04-27T10:39:43.101Z,5.30
2019-04-27T10:40:43.091Z,6.90
2019-04-27T10:41:43.101Z,6.50
2019-04-27T10:42:43.084Z,7.50
2019-04-27T10:43:43.080Z,7.90
2019-04-27T10:44:43.071Z,6.20
2019-04-27T10:45:43.065Z,8.60
2019-04-27T10:46:43.055Z,6.60
2019-04-27T10:47:43.050Z,7.20
2019-04-27T10:48:43.050Z,6.90
2019-04-27T10:49:43.038Z,6.80
2019-04-27T10:50:43.038Z,7.70
2019-04-27T10:51:43.030Z,10.30
2019-04-27T10:52:52.880Z,8.10
2019-04-27T10:53:43.016Z,7.30
2019-04-27T10:54:43.013Z,9.00
2019-04-27T10:55:43.008Z,7.70
2019-04-27T10:56:43.000Z,5.60
2019-04-27T10:57:42.992Z,8.00
2019-04-27T10:58:42.981Z,6.30
2019-04-27T10:59:42.976Z,7.00
2019-04-27T11:00:42.971Z,4.90
2019-04-27T11:01:42.966Z,6.50
2019-04-27T11:02:42.962Z,7.90
2019-04-27T11:03:42.957Z,7.40
2019-04-27T11:04:42.956Z,6.20
2019-04-27T11:05:42.947Z,7.50
2019-04-27T11:06:42.939Z,7.90
2019-04-27T11:07:42.931Z,10.60
2019-04-27T11:08:42.930Z,10.00
2019-04-27T11:09:42.923Z,9.00
2019-04-27T11:10:42.915Z,6.70
2019-04-27T11:11:42.910Z,7.20
2019-04-27T11:12:42.898Z,8.70
2019-04-27T11:13:42.893Z,5.20
2019-04-27T11:14:42.904Z,7.30
2019-04-27T11:15:42.887Z,11.00
2019-04-27T11:16:42.881Z,5.20
2019-04-27T11:17:42.873Z,8.70
2019-04-27T11:18:42.865Z,8.20
2019-04-27T11:19:42.861Z,6.30
2019-04-27T11:20:42.855Z,11.10
2019-04-27T11:21:42.850Z,5.70
2019-04-27T11:22:42.848Z,9.80
2019-04-27T11:23:42.840Z,7.80
2019-04-27T11:24:42.831Z,11.20
2019-04-27T11:25:42.825Z,8.90
2019-04-27T11:26:42.828Z,9.30
2019-04-27T11:27:42.817Z,8.90
2019-04-27T11:28:42.880Z,5.10
2019-04-27T11:29:42.803Z,8.30
2019-04-27T11:30:42.792Z,8.60
2019-04-27T11:31:42.786Z,8.70
2019-04-27T11:32:42.783Z,8.80
2019-04-27T11:33:42.776Z,10.70
2019-04-27T11:34:42.776Z,6.80
2019-04-27T11:35:42.771Z,8.10
2019-04-27T11:36:42.760Z,5.20
2019-04-27T11:37:42.755Z,9.10
2019-04-27T11:38:42.745Z,8.40
2019-04-27T11:39:42.740Z,7.60
2019-04-27T11:40:42.738Z,11.60
2019-04-27T11:41:42.734Z,7.50
2019-04-27T11:42:42.723Z,7.80
2019-04-27T11:43:42.715Z,8.20
2019-04-27T11:44:42.711Z,7.50
2019-04-27T11:45:42.707Z,9.00
2019-04-27T11:46:42.708Z,7.40
2019-04-27T11:47:42.700Z,5.50
2019-04-27T11:48:42.691Z,6.10
2019-04-27T11:49:42.685Z,7.40
2019-04-27T11:50:42.678Z,7.90
2019-04-27T11:51:42.670Z,7.90
2019-04-27T11:52:42.662Z,6.40
2019-04-27T11:53:42.660Z,6.20
2019-04-27T11:54:42.655Z,5.70
2019-04-27T11:55:42.649Z,2.20
2019-04-27T11:56:42.638Z,3.00
2019-04-27T11:57:42.634Z,3.70
2019-04-27T11:58:42.630Z,3.60
2019-04-27T11:59:42.627Z,3.70
2019-04-27T12:00:42.621Z,6.00
2019-04-27T12:01:42.615Z,3.50
2019-04-27T12:02:42.607Z,5.00
2019-04-27T12:03:42.601Z,3.70
2019-04-27T12:04:42.594Z,4.10
2019-04-27T12:05:42.591Z,6.80
2019-04-27T12:06:42.595Z,4.20
2019-04-27T12:07:42.584Z,5.50
2019-04-27T12:08:42.575Z,3.00
2019-04-27T12:09:42.569Z,3.90
2019-04-27T12:10:42.560Z,3.20
2019-04-27T12:11:42.555Z,2.70
2019-04-27T12:12:42.551Z,3.90
2019-04-27T12:13:42.550Z,3.50
2019-04-27T12:14:42.546Z,5.00
2019-04-27T12:15:42.532Z,3.60
2019-04-27T12:16:42.529Z,2.20
2019-04-27T12:17:42.523Z,3.60
2019-04-27T12:18:42.538Z,5.70
2019-04-27T12:19:42.518Z,4.60
2019-04-27T12:20:42.517Z,4.70
2019-04-27T12:21:42.508Z,2.70
2019-04-27T12:22:42.500Z,4.60
2019-04-27T12:23:42.518Z,4.60
2019-04-27T12:24:42.485Z,3.40
2019-04-27T12:25:42.481Z,5.50
2019-04-27T12:26:42.482Z,3.70
2019-04-27T12:27:42.479Z,4.90
2019-04-27T12:28:42.468Z,5.50
2019-04-27T12:29:42.461Z,5.30
2019-04-27T12:30:42.463Z,3.20
2019-04-27T12:31:44.822Z,4.10
2019-04-27T12:32:42.454Z,4.40
2019-04-27T12:33:42.448Z,4.40
2019-04-27T12:34:42.441Z,4.90
2019-04-27T12:35:42.437Z,4.40
2019-04-27T12:36:42.427Z,3.70
2019-04-27T12:37:42.425Z,4.10
2019-04-27T12:38:42.424Z,3.50
2019-04-27T12:39:42.419Z,3.20
2019-04-27T12:40:42.415Z,3.70
2019-04-27T12:41:42.411Z,5.20
2019-04-27T12:42:42.405Z,4.60
2019-04-27T12:43:42.400Z,7.30
2019-04-27T12:44:42.554Z,4.00
2019-04-27T12:45:43.674Z,6.60
2019-04-27T12:46:42.386Z,4.50
2019-04-27T12:47:42.388Z,4.80
2019-04-27T12:48:42.375Z,5.00
2019-04-27T12:49:42.372Z,3.00
2019-04-27T12:50:42.372Z,3.20
2019-04-27T12:51:42.369Z,5.60
2019-04-27T12:52:42.366Z,3.20
2019-04-27T12:53:52.168Z,3.20
2019-04-27T12:54:42.352Z,3.10
2019-04-27T12:55:42.351Z,6.90
2019-04-27T12:56:42.347Z,5.30
2019-04-27T12:57:42.344Z,4.70
2019-04-27T12:58:42.344Z,4.30
2019-04-27T12:59:44.177Z,6.10
2019-04-27T13:00:42.372Z,68.90
2019-04-27T13:01:42.330Z,175.10
2019-04-27T13:02:42.328Z,108.50
2019-04-27T13:03:42.326Z,7.30
2019-04-27T13:04:42.317Z,6.00
2019-04-27T13:05:42.314Z,5.80
2019-04-27T13:06:42.305Z,6.20
2019-04-27T13:07:42.301Z,5.20
2019-04-27T13:08:42.297Z,5.20
2019-04-27T13:09:42.292Z,4.50
2019-04-27T13:10:42.292Z,5.90
2019-04-27T13:11:42.289Z,4.00
2019-04-27T13:12:42.285Z,8.30
2019-04-27T13:13:42.286Z,4.70
2019-04-27T13:14:42.274Z,6.50
2019-04-27T13:15:42.269Z,7.50